sensor_id;sensor_type;location;lat;lon;timestamp;pressure;altitude;pressure_sealevel;temperature;humidity
1652;BME280;823;49.028;8.454;2023-04-25T00:02:26;99859.34;;;13.00;55.37
1652;BME280;823;49.028;8.454;2023-04-25T00:07:28;99861.56;;;12.90;55.62
1652;BME280;823;49.028;8.454;2023-04-25T00:12:28;99868.06;;;12.81;55.73
1652;BME280;823;49.028;8.454;2023-04-25T00:17:29;99863.63;;;12.83;55.67
1652;BME280;823;49.028;8.454;2023-04-25T00:22:29;99866.31;;;12.82;55.76
1652;BME280;823;49.028;8.454;2023-04-25T00:27:30;99862.03;;;12.81;55.46
1652;BME280;823;49.028;8.454;2023-04-25T00:32:30;99865.84;;;12.91;55.15
1652;BME280;823;49.028;8.454;2023-04-25T00:37:31;99860.34;;;12.97;54.84
1652;BME280;823;49.028;8.454;2023-04-25T00:42:31;99862.72;;;13.02;54.93
1652;BME280;823;49.028;8.454;2023-04-25T00:47:32;99853.47;;;12.96;55.37
1652;BME280;823;49.028;8.454;2023-04-25T00:52:34;99841.88;;;12.86;55.16
1652;BME280;823;49.028;8.454;2023-04-25T00:57:34;99840.88;;;12.88;54.51
1652;BME280;823;49.028;8.454;2023-04-25T01:02:35;99843.56;;;12.69;54.45
1652;BME280;823;49.028;8.454;2023-04-25T01:07:36;99834.09;;;12.86;54.32
1652;BME280;823;49.028;8.454;2023-04-25T01:12:36;99834.88;;;12.70;54.86
1652;BME280;823;49.028;8.454;2023-04-25T01:17:37;99829.69;;;12.88;54.38
1652;BME280;823;49.028;8.454;2023-04-25T01:22:37;99833.19;;;12.87;54.09
1652;BME280;823;49.028;8.454;2023-04-25T01:27:38;99833.78;;;12.92;54.23
1652;BME280;823;49.028;8.454;2023-04-25T01:32:39;99828.53;;;12.93;54.09
1652;BME280;823;49.028;8.454;2023-04-25T01:37:41;99833.78;;;12.92;54.02
1652;BME280;823;49.028;8.454;2023-04-25T01:42:43;99833.22;;;13.03;53.83
1652;BME280;823;49.028;8.454;2023-04-25T01:47:44;99838.38;;;12.87;53.80
1652;BME280;823;49.028;8.454;2023-04-25T01:52:49;99831.50;;;12.86;53.69
1652;BME280;823;49.028;8.454;2023-04-25T01:57:49;99826.28;;;13.03;53.70
1652;BME280;823;49.028;8.454;2023-04-25T02:02:49;99824.41;;;12.89;53.59
1652;BME280;823;49.028;8.454;2023-04-25T02:07:50;99832.75;;;12.78;54.43
1652;BME280;823;49.028;8.454;2023-04-25T02:12:51;99832.97;;;12.74;53.96
1652;BME280;823;49.028;8.454;2023-04-25T02:17:51;99827.09;;;12.70;54.07
1652;BME280;823;49.028;8.454;2023-04-25T02:22:54;99834.88;;;12.70;54.35
1652;BME280;823;49.028;8.454;2023-04-25T02:27:55;99833.66;;;12.77;54.55
1652;BME280;823;49.028;8.454;2023-04-25T02:32:55;99821.28;;;12.65;55.50
1652;BME280;823;49.028;8.454;2023-04-25T02:37:56;99819.03;;;12.59;56.31
1652;BME280;823;49.028;8.454;2023-04-25T02:42:56;99813.22;;;12.54;56.97
1652;BME280;823;49.028;8.454;2023-04-25T02:47:57;99822.31;;;12.45;57.91
1652;BME280;823;49.028;8.454;2023-04-25T02:52:57;99808.66;;;12.41;58.32
1652;BME280;823;49.028;8.454;2023-04-25T02:57:57;99804.16;;;12.45;58.49
1652;BME280;823;49.028;8.454;2023-04-25T03:02:58;99802.56;;;12.42;58.92
1652;BME280;823;49.028;8.454;2023-04-25T03:07:59;99813.00;;;12.41;58.98
1652;BME280;823;49.028;8.454;2023-04-25T03:12:59;99813.28;;;12.35;59.13
1652;BME280;823;49.028;8.454;2023-04-25T03:17:59;99810.63;;;12.36;58.71
1652;BME280;823;49.028;8.454;2023-04-25T03:23:00;99796.13;;;12.32;58.82
1652;BME280;823;49.028;8.454;2023-04-25T03:28:00;99799.13;;;12.24;58.28
1652;BME280;823;49.028;8.454;2023-04-25T03:33:00;99796.91;;;12.17;58.46
1652;BME280;823;49.028;8.454;2023-04-25T03:38:01;99800.09;;;12.04;58.24
1652;BME280;823;49.028;8.454;2023-04-25T03:43:01;99794.88;;;12.74;56.67
1652;BME280;823;49.028;8.454;2023-04-25T03:48:01;99788.97;;;12.72;56.13
1652;BME280;823;49.028;8.454;2023-04-25T03:53:02;99798.13;;;12.44;57.19
1652;BME280;823;49.028;8.454;2023-04-25T03:58:02;99799.13;;;12.42;57.59
1652;BME280;823;49.028;8.454;2023-04-25T04:03:02;99803.00;;;12.33;57.33
1652;BME280;823;49.028;8.454;2023-04-25T04:08:03;99803.09;;;12.32;57.42
1652;BME280;823;49.028;8.454;2023-04-25T04:13:03;99807.91;;;12.39;57.68
1652;BME280;823;49.028;8.454;2023-04-25T04:18:04;99804.69;;;12.34;58.04
1652;BME280;823;49.028;8.454;2023-04-25T04:23:04;99809.88;;;12.34;57.85
1652;BME280;823;49.028;8.454;2023-04-25T04:28:05;99801.56;;;12.45;57.86
1652;BME280;823;49.028;8.454;2023-04-25T04:33:07;99806.22;;;12.38;57.71
1652;BME280;823;49.028;8.454;2023-04-25T04:38:07;99805.75;;;12.48;57.68
1652;BME280;823;49.028;8.454;2023-04-25T04:43:08;99804.44;;;12.56;57.70
1652;BME280;823;49.028;8.454;2023-04-25T04:48:10;99803.47;;;12.59;57.87
1652;BME280;823;49.028;8.454;2023-04-25T04:53:14;99806.81;;;12.61;57.78
1652;BME280;823;49.028;8.454;2023-04-25T04:58:14;99812.84;;;12.62;57.18
1652;BME280;823;49.028;8.454;2023-04-25T05:03:15;99817.72;;;12.68;57.48
1652;BME280;823;49.028;8.454;2023-04-25T05:08:15;99807.13;;;12.72;57.32
1652;BME280;823;49.028;8.454;2023-04-25T05:13:16;99815.91;;;12.70;56.82
1652;BME280;823;49.028;8.454;2023-04-25T05:18:16;99825.69;;;12.81;57.11
1652;BME280;823;49.028;8.454;2023-04-25T05:23:16;99828.69;;;12.90;56.84
1652;BME280;823;49.028;8.454;2023-04-25T05:28:16;99841.09;;;13.01;56.50
1652;BME280;823;49.028;8.454;2023-04-25T05:33:17;99828.31;;;13.14;56.22
1652;BME280;823;49.028;8.454;2023-04-25T05:38:17;99830.28;;;13.26;56.10
1652;BME280;823;49.028;8.454;2023-04-25T05:43:17;99836.66;;;13.37;56.47
1652;BME280;823;49.028;8.454;2023-04-25T05:48:18;99839.13;;;13.56;55.81
1652;BME280;823;49.028;8.454;2023-04-25T05:53:19;99835.34;;;13.45;56.00
1652;BME280;823;49.028;8.454;2023-04-25T05:58:20;99844.22;;;13.73;55.57
1652;BME280;823;49.028;8.454;2023-04-25T06:03:20;99843.91;;;13.79;54.87
1652;BME280;823;49.028;8.454;2023-04-25T06:08:21;99854.38;;;13.78;54.08
1652;BME280;823;49.028;8.454;2023-04-25T06:13:21;99848.84;;;13.68;54.10
1652;BME280;823;49.028;8.454;2023-04-25T06:18:21;99853.38;;;13.49;54.35
1652;BME280;823;49.028;8.454;2023-04-25T06:23:22;99859.47;;;13.48;54.46
1652;BME280;823;49.028;8.454;2023-04-25T06:28:22;99864.75;;;13.46;53.82
1652;BME280;823;49.028;8.454;2023-04-25T06:33:23;99871.94;;;13.41;54.47
1652;BME280;823;49.028;8.454;2023-04-25T06:38:24;99873.34;;;13.31;55.15
1652;BME280;823;49.028;8.454;2023-04-25T06:43:24;99866.78;;;13.23;55.38
1652;BME280;823;49.028;8.454;2023-04-25T06:48:25;99873.63;;;13.08;56.35
1652;BME280;823;49.028;8.454;2023-04-25T06:53:25;99872.94;;;13.05;56.64
1652;BME280;823;49.028;8.454;2023-04-25T06:58:25;99882.25;;;12.91;57.79
1652;BME280;823;49.028;8.454;2023-04-25T07:03:26;99875.78;;;13.00;57.77
1652;BME280;823;49.028;8.454;2023-04-25T07:08:26;99881.09;;;12.97;57.96
1652;BME280;823;49.028;8.454;2023-04-25T07:13:27;99879.47;;;13.12;57.86
1652;BME280;823;49.028;8.454;2023-04-25T07:18:27;99879.66;;;13.09;57.59
1652;BME280;823;49.028;8.454;2023-04-25T07:23:28;99881.13;;;13.31;57.23
1652;BME280;823;49.028;8.454;2023-04-25T07:28:28;99894.03;;;13.32;57.40
1652;BME280;823;49.028;8.454;2023-04-25T07:33:28;99892.44;;;13.29;56.76
1652;BME280;823;49.028;8.454;2023-04-25T07:38:29;99898.19;;;13.36;56.67
1652;BME280;823;49.028;8.454;2023-04-25T07:43:29;99896.84;;;13.45;56.61
1652;BME280;823;49.028;8.454;2023-04-25T07:48:30;99902.88;;;13.45;56.60
1652;BME280;823;49.028;8.454;2023-04-25T07:53:30;99913.31;;;13.61;56.19
1652;BME280;823;49.028;8.454;2023-04-25T07:58:32;99926.56;;;13.57;56.26
1652;BME280;823;49.028;8.454;2023-04-25T08:03:32;99927.69;;;13.51;56.19
1652;BME280;823;49.028;8.454;2023-04-25T08:08:32;99935.56;;;13.50;56.28
1652;BME280;823;49.028;8.454;2023-04-25T08:13:33;99943.97;;;13.55;56.17
1652;BME280;823;49.028;8.454;2023-04-25T08:18:33;99950.94;;;13.54;56.48
1652;BME280;823;49.028;8.454;2023-04-25T08:23:33;99956.16;;;13.70;56.14
1652;BME280;823;49.028;8.454;2023-04-25T08:28:34;99963.41;;;13.63;56.51
1652;BME280;823;49.028;8.454;2023-04-25T08:33:34;99977.72;;;13.72;56.13
1652;BME280;823;49.028;8.454;2023-04-25T08:38:35;99980.75;;;13.81;56.67
1652;BME280;823;49.028;8.454;2023-04-25T08:43:37;99993.22;;;13.90;56.21
1652;BME280;823;49.028;8.454;2023-04-25T08:48:40;99992.34;;;13.73;57.15
1652;BME280;823;49.028;8.454;2023-04-25T08:53:41;99995.53;;;13.62;57.07
1652;BME280;823;49.028;8.454;2023-04-25T08:58:43;100007.47;;;13.67;57.31
1652;BME280;823;49.028;8.454;2023-04-25T09:03:46;100005.53;;;13.70;57.20
1652;BME280;823;49.028;8.454;2023-04-25T09:08:50;100013.72;;;13.62;58.23
1652;BME280;823;49.028;8.454;2023-04-25T09:13:51;100027.63;;;13.61;58.44
1652;BME280;823;49.028;8.454;2023-04-25T09:19:21;100042.56;;;13.40;58.65
1652;BME280;823;49.028;8.454;2023-04-25T09:24:39;100058.44;;;13.17;58.50
1652;BME280;823;49.028;8.454;2023-04-25T09:29:41;100067.28;;;12.76;59.34
1652;BME280;823;49.028;8.454;2023-04-25T09:34:44;100085.59;;;12.54;60.23
1652;BME280;823;49.028;8.454;2023-04-25T09:39:45;100094.22;;;12.35;61.79
1652;BME280;823;49.028;8.454;2023-04-25T09:44:49;100098.34;;;12.20;62.83
1652;BME280;823;49.028;8.454;2023-04-25T09:49:52;100104.34;;;12.21;63.28
1652;BME280;823;49.028;8.454;2023-04-25T09:54:53;100114.63;;;12.24;63.33
1652;BME280;823;49.028;8.454;2023-04-25T09:59:54;100125.03;;;12.22;63.56
1652;BME280;823;49.028;8.454;2023-04-25T10:04:55;100125.00;;;12.24;63.71
1652;BME280;823;49.028;8.454;2023-04-25T10:10:01;100126.94;;;12.19;64.05
1652;BME280;823;49.028;8.454;2023-04-25T10:15:03;100125.56;;;12.10;64.33
1652;BME280;823;49.028;8.454;2023-04-25T10:20:06;100131.16;;;12.21;64.88
1652;BME280;823;49.028;8.454;2023-04-25T10:25:11;100133.75;;;12.40;65.34
1652;BME280;823;49.028;8.454;2023-04-25T10:30:15;100138.25;;;12.75;65.23
1652;BME280;823;49.028;8.454;2023-04-25T10:35:18;100144.22;;;12.96;65.30
1652;BME280;823;49.028;8.454;2023-04-25T10:40:22;100146.25;;;13.08;64.94
1652;BME280;823;49.028;8.454;2023-04-25T10:45:22;100147.91;;;13.09;63.71
1652;BME280;823;49.028;8.454;2023-04-25T10:50:37;100150.38;;;13.13;63.78
1652;BME280;823;49.028;8.454;2023-04-25T10:55:55;100153.56;;;13.18;63.34
1652;BME280;823;49.028;8.454;2023-04-25T11:00:56;100159.97;;;13.10;63.97
1652;BME280;823;49.028;8.454;2023-04-25T11:05:56;100159.16;;;12.91;63.99
1652;BME280;823;49.028;8.454;2023-04-25T11:10:57;100163.78;;;13.03;63.99
1652;BME280;823;49.028;8.454;2023-04-25T11:15:57;100162.22;;;13.18;63.69
1652;BME280;823;49.028;8.454;2023-04-25T11:20:58;100166.13;;;13.27;63.02
1652;BME280;823;49.028;8.454;2023-04-25T11:25:58;100172.38;;;13.23;62.52
1652;BME280;823;49.028;8.454;2023-04-25T11:31:02;100174.44;;;12.97;63.04
1652;BME280;823;49.028;8.454;2023-04-25T11:36:04;100177.97;;;12.77;62.88
1652;BME280;823;49.028;8.454;2023-04-25T11:41:05;100180.97;;;12.87;62.67
1652;BME280;823;49.028;8.454;2023-04-25T11:46:09;100195.50;;;12.91;63.29
1652;BME280;823;49.028;8.454;2023-04-25T11:51:09;100197.75;;;12.80;63.25
1652;BME280;823;49.028;8.454;2023-04-25T11:56:11;100198.78;;;12.75;63.36
1652;BME280;823;49.028;8.454;2023-04-25T12:01:28;100212.06;;;12.88;63.27
1652;BME280;823;49.028;8.454;2023-04-25T12:06:29;100208.38;;;12.73;63.00
1652;BME280;823;49.028;8.454;2023-04-25T12:11:32;100223.06;;;12.74;63.19
1652;BME280;823;49.028;8.454;2023-04-25T12:16:45;100216.16;;;12.73;63.30
1652;BME280;823;49.028;8.454;2023-04-25T12:21:46;100204.75;;;12.77;64.29
1652;BME280;823;49.028;8.454;2023-04-25T12:26:51;100211.97;;;12.90;64.63
1652;BME280;823;49.028;8.454;2023-04-25T12:31:53;100203.97;;;13.14;64.77
1652;BME280;823;49.028;8.454;2023-04-25T12:36:54;100200.91;;;13.96;61.38
1652;BME280;823;49.028;8.454;2023-04-25T12:41:54;100200.13;;;14.11;61.38
1652;BME280;823;49.028;8.454;2023-04-25T12:46:54;100207.94;;;14.11;60.71
1652;BME280;823;49.028;8.454;2023-04-25T12:51:55;100213.53;;;14.04;60.37
1652;BME280;823;49.028;8.454;2023-04-25T12:56:56;100212.81;;;14.18;59.24
1652;BME280;823;49.028;8.454;2023-04-25T13:01:56;100225.84;;;14.00;59.63
1652;BME280;823;49.028;8.454;2023-04-25T13:06:57;100224.53;;;13.91;59.95
1652;BME280;823;49.028;8.454;2023-04-25T13:11:57;100217.88;;;14.03;60.52
1652;BME280;823;49.028;8.454;2023-04-25T13:16:57;100218.19;;;14.14;61.04
1652;BME280;823;49.028;8.454;2023-04-25T13:21:58;100219.69;;;14.36;61.00
1652;BME280;823;49.028;8.454;2023-04-25T13:26:58;100217.66;;;14.59;59.79
1652;BME280;823;49.028;8.454;2023-04-25T13:31:59;100215.56;;;14.50;58.78
1652;BME280;823;49.028;8.454;2023-04-25T13:36:59;100223.75;;;14.75;59.97
1652;BME280;823;49.028;8.454;2023-04-25T13:42:00;100227.41;;;14.89;58.84
1652;BME280;823;49.028;8.454;2023-04-25T13:47:02;100231.53;;;14.93;57.63
1652;BME280;823;49.028;8.454;2023-04-25T13:52:02;100230.50;;;14.62;57.00
1652;BME280;823;49.028;8.454;2023-04-25T13:57:02;100223.69;;;14.77;57.07
1652;BME280;823;49.028;8.454;2023-04-25T14:02:03;100219.34;;;14.60;57.34
1652;BME280;823;49.028;8.454;2023-04-25T14:07:03;100225.63;;;14.73;57.37
1652;BME280;823;49.028;8.454;2023-04-25T14:12:03;100234.63;;;15.15;55.88
1652;BME280;823;49.028;8.454;2023-04-25T14:17:04;100236.75;;;15.25;55.22
1652;BME280;823;49.028;8.454;2023-04-25T14:22:05;100227.50;;;15.03;53.87
1652;BME280;823;49.028;8.454;2023-04-25T14:27:05;100227.25;;;15.08;54.46
1652;BME280;823;49.028;8.454;2023-04-25T14:32:06;100222.06;;;15.08;53.88
1652;BME280;823;49.028;8.454;2023-04-25T14:37:06;100222.59;;;14.81;51.74
1652;BME280;823;49.028;8.454;2023-04-25T14:42:07;100224.22;;;15.00;52.84
1652;BME280;823;49.028;8.454;2023-04-25T14:47:07;100231.72;;;15.22;53.36
1652;BME280;823;49.028;8.454;2023-04-25T14:52:07;100231.41;;;15.42;53.44
1652;BME280;823;49.028;8.454;2023-04-25T14:57:08;100219.56;;;15.37;52.61
1652;BME280;823;49.028;8.454;2023-04-25T15:02:08;100226.13;;;15.60;51.61
1652;BME280;823;49.028;8.454;2023-04-25T15:07:08;100232.78;;;15.49;51.46
1652;BME280;823;49.028;8.454;2023-04-25T15:12:09;100240.59;;;15.49;51.17
1652;BME280;823;49.028;8.454;2023-04-25T15:17:10;100238.56;;;15.23;49.66
1652;BME280;823;49.028;8.454;2023-04-25T15:22:13;100237.06;;;15.19;49.75
1652;BME280;823;49.028;8.454;2023-04-25T15:27:14;100240.59;;;15.02;50.55
1652;BME280;823;49.028;8.454;2023-04-25T15:32:14;100241.78;;;14.96;50.46
1652;BME280;823;49.028;8.454;2023-04-25T15:37:15;100250.13;;;14.69;51.48
1652;BME280;823;49.028;8.454;2023-04-25T15:42:15;100253.03;;;14.63;51.71
1652;BME280;823;49.028;8.454;2023-04-25T15:47:16;100266.19;;;14.60;52.86
1652;BME280;823;49.028;8.454;2023-04-25T15:52:16;100279.84;;;14.30;54.73
1652;BME280;823;49.028;8.454;2023-04-25T15:57:20;100293.00;;;13.92;56.21
1652;BME280;823;49.028;8.454;2023-04-25T16:02:21;100304.06;;;13.78;57.36
1652;BME280;823;49.028;8.454;2023-04-25T16:07:21;100321.38;;;13.41;58.98
1652;BME280;823;49.028;8.454;2023-04-25T16:12:22;100340.03;;;12.70;60.78
1652;BME280;823;49.028;8.454;2023-04-25T16:17:23;100338.25;;;12.29;61.00
1652;BME280;823;49.028;8.454;2023-04-25T16:22:23;100340.47;;;11.96;61.42
1652;BME280;823;49.028;8.454;2023-04-25T16:27:24;100337.69;;;11.54;62.66
1652;BME280;823;49.028;8.454;2023-04-25T16:32:24;100342.78;;;11.57;63.27
1652;BME280;823;49.028;8.454;2023-04-25T16:37:25;100338.00;;;11.47;63.62
1652;BME280;823;49.028;8.454;2023-04-25T16:42:25;100337.03;;;11.49;64.17
1652;BME280;823;49.028;8.454;2023-04-25T16:47:26;100340.06;;;11.61;64.42
1652;BME280;823;49.028;8.454;2023-04-25T16:52:26;100332.53;;;11.76;63.93
1652;BME280;823;49.028;8.454;2023-04-25T16:57:26;100327.94;;;11.83;64.05
1652;BME280;823;49.028;8.454;2023-04-25T17:02:27;100329.25;;;11.95;64.17
1652;BME280;823;49.028;8.454;2023-04-25T17:07:27;100323.72;;;11.81;64.16
1652;BME280;823;49.028;8.454;2023-04-25T17:12:27;100317.84;;;11.77;63.76
1652;BME280;823;49.028;8.454;2023-04-25T17:17:28;100336.19;;;11.93;63.94
1652;BME280;823;49.028;8.454;2023-04-25T17:22:28;100333.34;;;12.01;64.11
1652;BME280;823;49.028;8.454;2023-04-25T17:27:29;100343.00;;;11.97;64.67
1652;BME280;823;49.028;8.454;2023-04-25T17:32:29;100343.06;;;11.96;64.42
1652;BME280;823;49.028;8.454;2023-04-25T17:37:30;100345.44;;;12.00;64.41
1652;BME280;823;49.028;8.454;2023-04-25T17:42:30;100344.41;;;12.04;64.38
1652;BME280;823;49.028;8.454;2023-04-25T17:47:31;100342.44;;;12.11;64.24
1652;BME280;823;49.028;8.454;2023-04-25T17:52:31;100351.00;;;12.13;63.77
1652;BME280;823;49.028;8.454;2023-04-25T17:57:32;100349.66;;;12.25;63.43
1652;BME280;823;49.028;8.454;2023-04-25T18:02:32;100354.06;;;12.23;63.49
1652;BME280;823;49.028;8.454;2023-04-25T18:07:35;100358.38;;;12.24;63.04
1652;BME280;823;49.028;8.454;2023-04-25T18:12:36;100376.38;;;12.27;63.10
1652;BME280;823;49.028;8.454;2023-04-25T18:17:37;100359.25;;;12.23;63.36
1652;BME280;823;49.028;8.454;2023-04-25T18:22:42;100364.06;;;12.32;63.53
1652;BME280;823;49.028;8.454;2023-04-25T18:27:43;100364.31;;;12.26;63.20
1652;BME280;823;49.028;8.454;2023-04-25T18:32:44;100379.47;;;12.15;63.45
1652;BME280;823;49.028;8.454;2023-04-25T18:37:45;100407.50;;;12.27;63.32
1652;BME280;823;49.028;8.454;2023-04-25T18:42:45;100418.00;;;12.24;63.48
1652;BME280;823;49.028;8.454;2023-04-25T18:47:45;100425.94;;;12.19;63.43
1652;BME280;823;49.028;8.454;2023-04-25T18:52:46;100415.28;;;12.27;63.64
1652;BME280;823;49.028;8.454;2023-04-25T18:57:46;100430.09;;;12.23;63.50
1652;BME280;823;49.028;8.454;2023-04-25T19:02:46;100428.25;;;12.27;63.44
1652;BME280;823;49.028;8.454;2023-04-25T19:07:47;100440.97;;;12.33;63.49
1652;BME280;823;49.028;8.454;2023-04-25T19:12:47;100448.19;;;12.25;63.44
1652;BME280;823;49.028;8.454;2023-04-25T19:17:48;100448.31;;;12.22;63.82
1652;BME280;823;49.028;8.454;2023-04-25T19:22:48;100451.59;;;12.27;63.87
1652;BME280;823;49.028;8.454;2023-04-25T19:27:49;100455.06;;;12.26;63.66
1652;BME280;823;49.028;8.454;2023-04-25T19:32:49;100462.19;;;12.21;63.90
1652;BME280;823;49.028;8.454;2023-04-25T19:37:50;100463.69;;;12.26;63.72
1652;BME280;823;49.028;8.454;2023-04-25T19:42:50;100468.59;;;12.34;63.67
1652;BME280;823;49.028;8.454;2023-04-25T19:47:52;100466.97;;;12.32;63.89
1652;BME280;823;49.028;8.454;2023-04-25T19:52:52;100467.69;;;12.35;64.04
1652;BME280;823;49.028;8.454;2023-04-25T19:57:52;100474.53;;;12.36;63.84
1652;BME280;823;49.028;8.454;2023-04-25T20:02:53;100472.94;;;12.34;63.72
1652;BME280;823;49.028;8.454;2023-04-25T20:07:54;100482.22;;;12.39;63.91
1652;BME280;823;49.028;8.454;2023-04-25T20:12:54;100484.81;;;12.39;63.92
1652;BME280;823;49.028;8.454;2023-04-25T20:17:54;100495.13;;;12.41;63.99
1652;BME280;823;49.028;8.454;2023-04-25T20:22:55;100490.91;;;12.38;64.00
1652;BME280;823;49.028;8.454;2023-04-25T20:27:55;100493.44;;;12.40;63.80
1652;BME280;823;49.028;8.454;2023-04-25T20:32:56;100500.47;;;12.36;63.82
1652;BME280;823;49.028;8.454;2023-04-25T20:37:56;100501.41;;;12.35;63.77
1652;BME280;823;49.028;8.454;2023-04-25T20:42:56;100495.19;;;12.39;63.76
1652;BME280;823;49.028;8.454;2023-04-25T20:47:57;100484.16;;;12.34;63.63
1652;BME280;823;49.028;8.454;2023-04-25T20:52:58;100490.19;;;12.35;63.77
1652;BME280;823;49.028;8.454;2023-04-25T20:57:58;100490.09;;;12.36;63.57
1652;BME280;823;49.028;8.454;2023-04-25T21:02:59;100498.91;;;12.32;63.64
1652;BME280;823;49.028;8.454;2023-04-25T21:08:02;100508.41;;;12.33;63.80
1652;BME280;823;49.028;8.454;2023-04-25T21:13:02;100499.91;;;12.30;63.70
1652;BME280;823;49.028;8.454;2023-04-25T21:18:02;100506.81;;;12.29;63.63
1652;BME280;823;49.028;8.454;2023-04-25T21:23:03;100509.53;;;12.26;63.47
1652;BME280;823;49.028;8.454;2023-04-25T21:28:03;100520.94;;;12.22;63.76
1652;BME280;823;49.028;8.454;2023-04-25T21:33:03;100514.03;;;12.21;63.86
1652;BME280;823;49.028;8.454;2023-04-25T21:38:04;100517.38;;;12.24;63.88
1652;BME280;823;49.028;8.454;2023-04-25T21:43:04;100521.75;;;12.22;63.80
1652;BME280;823;49.028;8.454;2023-04-25T21:48:05;100520.88;;;12.23;64.00
1652;BME280;823;49.028;8.454;2023-04-25T21:53:05;100527.00;;;12.21;64.09
1652;BME280;823;49.028;8.454;2023-04-25T21:58:06;100533.94;;;12.20;64.05
1652;BME280;823;49.028;8.454;2023-04-25T22:03:06;100535.81;;;12.17;64.19
1652;BME280;823;49.028;8.454;2023-04-25T22:08:06;100537.50;;;12.18;63.97
1652;BME280;823;49.028;8.454;2023-04-25T22:13:07;100538.41;;;12.17;63.91
1652;BME280;823;49.028;8.454;2023-04-25T22:18:07;100533.34;;;12.14;64.01
1652;BME280;823;49.028;8.454;2023-04-25T22:23:07;100539.34;;;12.14;64.17
1652;BME280;823;49.028;8.454;2023-04-25T22:28:08;100547.19;;;12.13;64.13
1652;BME280;823;49.028;8.454;2023-04-25T22:33:09;100549.00;;;12.11;64.00
1652;BME280;823;49.028;8.454;2023-04-25T22:38:10;100542.00;;;12.13;63.94
1652;BME280;823;49.028;8.454;2023-04-25T22:43:10;100549.69;;;12.16;63.92
1652;BME280;823;49.028;8.454;2023-04-25T22:48:11;100554.41;;;12.04;63.90
1652;BME280;823;49.028;8.454;2023-04-25T22:53:11;100553.63;;;12.02;63.68
1652;BME280;823;49.028;8.454;2023-04-25T22:58:12;100552.94;;;11.97;63.81
1652;BME280;823;49.028;8.454;2023-04-25T23:03:12;100559.06;;;11.95;63.86
1652;BME280;823;49.028;8.454;2023-04-25T23:08:13;100553.28;;;11.86;63.91
1652;BME280;823;49.028;8.454;2023-04-25T23:13:16;100554.16;;;11.87;63.56
1652;BME280;823;49.028;8.454;2023-04-25T23:18:16;100560.47;;;11.80;63.67
1652;BME280;823;49.028;8.454;2023-04-25T23:23:17;100562.38;;;11.74;63.54
1652;BME280;823;49.028;8.454;2023-04-25T23:28:17;100564.25;;;11.69;63.29
1652;BME280;823;49.028;8.454;2023-04-25T23:33:18;100565.50;;;11.59;63.42
1652;BME280;823;49.028;8.454;2023-04-25T23:38:18;100575.22;;;11.52;63.40
1652;BME280;823;49.028;8.454;2023-04-25T23:43:19;100580.69;;;11.43;63.48
1652;BME280;823;49.028;8.454;2023-04-25T23:48:20;100579.97;;;11.39;63.58
1652;BME280;823;49.028;8.454;2023-04-25T23:53:20;100589.63;;;11.34;63.42
1652;BME280;823;49.028;8.454;2023-04-25T23:58:21;100588.09;;;11.29;63.28
